createdAt,value
2018-11-06T00:01:55.611Z,70.97
2018-11-06T00:04:29.248Z,71.63
2018-11-06T00:06:58.007Z,72.91
2018-11-06T00:09:26.714Z,73.40
2018-11-06T00:11:55.331Z,73.31
2018-11-06T00:14:23.984Z,74.38
2018-11-06T00:16:52.677Z,74.02
2018-11-06T00:19:21.319Z,73.71
2018-11-06T00:21:50.076Z,73.98
2018-11-06T00:24:18.863Z,74.93
2018-11-06T00:26:47.502Z,75.09
2018-11-06T00:29:16.108Z,75.52
2018-11-06T00:31:45.053Z,75.18
2018-11-06T00:34:14.071Z,74.93
2018-11-06T00:36:42.688Z,74.40
2018-11-06T00:39:11.621Z,75.08
2018-11-06T00:41:40.244Z,74.69
2018-11-06T00:44:09.122Z,74.74
2018-11-06T00:46:37.777Z,74.45
2018-11-06T00:49:06.567Z,74.77
2018-11-06T00:51:35.194Z,74.27
2018-11-06T00:54:03.857Z,74.40
2018-11-06T00:56:32.524Z,73.78
2018-11-06T00:59:01.148Z,73.80
2018-11-06T01:01:29.797Z,74.74
2018-11-06T01:04:03.797Z,74.26
2018-11-06T01:06:32.524Z,74.65
2018-11-06T01:09:01.183Z,74.43
2018-11-06T01:11:29.809Z,74.28
2018-11-06T01:13:58.468Z,74.95
2018-11-06T01:16:27.189Z,75.52
2018-11-06T01:18:55.836Z,75.27
2018-11-06T01:21:24.485Z,75.03
2018-11-06T01:23:53.171Z,74.38
2018-11-06T01:26:21.921Z,75.11
2018-11-06T01:28:50.524Z,74.96
2018-11-06T01:31:19.216Z,75.41
2018-11-06T01:33:48.849Z,75.32
2018-11-06T01:36:17.493Z,75.44
2018-11-06T01:38:46.128Z,75.44
2018-11-06T01:41:14.784Z,74.79
2018-11-06T01:43:43.475Z,74.13
2018-11-06T01:46:12.121Z,74.76
2018-11-06T01:48:40.826Z,74.39
2018-11-06T01:51:09.472Z,74.22
2018-11-06T01:53:38.119Z,73.63
2018-11-06T01:56:06.752Z,74.01
2018-11-06T01:58:35.869Z,74.40
2018-11-06T02:01:04.640Z,75.09
2018-11-06T02:03:33.236Z,75.44
2018-11-06T02:06:01.900Z,74.93
2018-11-06T02:08:30.524Z,75.46
2018-11-06T02:10:59.229Z,74.79
2018-11-06T02:13:28.234Z,76.59
2018-11-06T02:15:57.084Z,75.99
2018-11-06T02:18:25.764Z,75.52
2018-11-06T02:20:54.383Z,75.92
2018-11-06T02:27:59.588Z,75.32
2018-11-06T02:30:28.291Z,75.49
2018-11-06T02:32:56.955Z,75.26
2018-11-06T02:35:25.560Z,75.91
2018-11-06T02:37:54.239Z,76.03
2018-11-06T02:40:22.921Z,76.75
2018-11-06T02:42:51.632Z,76.16
2018-11-06T02:45:20.265Z,74.91
2018-11-06T02:47:48.888Z,75.59
2018-11-06T02:50:17.558Z,75.74
2018-11-06T02:52:46.236Z,76.42
2018-11-06T02:55:14.918Z,76.80
2018-11-06T02:57:43.685Z,76.16
2018-11-06T03:00:16.533Z,75.80
2018-11-06T03:02:46.282Z,75.49
2018-11-06T03:05:14.955Z,76.37
2018-11-06T03:07:43.708Z,76.65
2018-11-06T03:10:13.421Z,76.96
2018-11-06T03:12:42.934Z,77.57
2018-11-06T03:15:12.817Z,77.10
2018-11-06T03:17:41.510Z,77.33
2018-11-06T03:20:11.093Z,76.60
2018-11-06T03:22:40.326Z,76.51
2018-11-06T03:25:09.089Z,76.53
2018-11-06T03:27:37.764Z,75.85
2018-11-06T03:30:12.477Z,76.95
2018-11-06T03:32:41.187Z,76.57
2018-11-06T03:35:11.243Z,76.27
2018-11-06T03:37:40.139Z,76.67
2018-11-06T03:40:09.837Z,76.12
2018-11-06T03:42:38.915Z,76.87
2018-11-06T03:45:08.130Z,76.71
2018-11-06T03:47:37.045Z,76.50
2018-11-06T03:50:05.943Z,77.58
2018-11-06T03:52:34.615Z,78.52
2018-11-06T03:55:03.308Z,78.34
2018-11-06T03:57:31.992Z,77.95
2018-11-06T04:00:00.653Z,77.49
2018-11-06T04:02:29.302Z,78.93
2018-11-06T04:04:57.980Z,78.16
2018-11-06T04:07:26.671Z,78.92
2018-11-06T04:09:55.374Z,77.97
2018-11-06T04:12:24.069Z,78.19
2018-11-06T04:14:52.801Z,79.18
2018-11-06T04:17:21.457Z,79.18
2018-11-06T04:19:50.276Z,79.28
2018-11-06T04:22:18.924Z,78.42
2018-11-06T04:24:47.626Z,78.58
2018-11-06T04:27:16.253Z,78.36
2018-11-06T04:29:44.917Z,78.69
2018-11-06T04:32:13.532Z,77.93
2018-11-06T04:34:42.127Z,78.58
2018-11-06T04:37:10.826Z,78.77
2018-11-06T04:39:39.467Z,78.77
2018-11-06T04:42:08.179Z,78.55
2018-11-06T04:44:36.849Z,78.46
2018-11-06T04:47:05.924Z,78.43
2018-11-06T04:49:35.019Z,78.73
2018-11-06T04:52:03.744Z,78.35
2018-11-06T04:54:32.424Z,78.91
2018-11-06T04:57:01.083Z,78.62
2018-11-06T04:59:29.796Z,78.17
2018-11-06T05:01:58.571Z,79.46
2018-11-06T05:04:27.192Z,78.62
2018-11-06T05:06:55.894Z,78.89
2018-11-06T05:09:24.605Z,78.34
2018-11-06T05:11:53.264Z,77.69
2018-11-06T05:14:22.017Z,78.20
2018-11-06T05:16:50.689Z,78.90
2018-11-06T05:19:19.353Z,78.82
2018-11-06T05:21:48.098Z,78.53
2018-11-06T05:24:16.783Z,78.42
2018-11-06T05:26:45.393Z,78.77
2018-11-06T05:29:14.053Z,78.51
2018-11-06T05:31:42.708Z,77.61
2018-11-06T05:34:11.394Z,78.17
2018-11-06T05:36:40.014Z,78.05
2018-11-06T05:39:10.626Z,79.04
2018-11-06T05:41:39.213Z,79.33
2018-11-06T05:44:07.865Z,77.70
2018-11-06T05:46:36.765Z,77.60
2018-11-06T05:49:05.464Z,77.89
2018-11-06T05:51:34.171Z,77.87
2018-11-06T05:54:02.879Z,79.40
2018-11-06T05:56:31.553Z,77.79
2018-11-06T05:59:00.217Z,78.69
2018-11-06T06:01:29.203Z,78.48
2018-11-06T06:03:57.924Z,78.59
2018-11-06T06:06:27.181Z,78.74
2018-11-06T06:08:55.888Z,79.03
2018-11-06T06:11:24.540Z,78.22
2018-11-06T06:13:53.167Z,78.98
2018-11-06T06:16:21.841Z,77.66
2018-11-06T06:18:50.525Z,77.91
2018-11-06T06:21:19.260Z,78.28
2018-11-06T06:23:48.010Z,78.76
2018-11-06T06:26:16.888Z,78.61
2018-11-06T06:28:45.558Z,78.46
2018-11-06T06:31:14.234Z,78.12
2018-11-06T06:33:42.938Z,78.44
2018-11-06T06:36:11.706Z,78.21
2018-11-06T06:38:40.540Z,78.54
2018-11-06T06:41:09.304Z,79.04
2018-11-06T06:43:37.926Z,77.77
2018-11-06T06:46:06.588Z,77.54
2018-11-06T06:48:35.288Z,76.54
2018-11-06T06:51:03.977Z,76.96
2018-11-06T06:53:32.632Z,76.45
2018-11-06T06:56:01.293Z,75.63
2018-11-06T06:58:29.920Z,75.92
2018-11-06T07:00:58.700Z,76.07
2018-11-06T07:03:27.376Z,74.72
2018-11-06T07:05:56.022Z,74.18
2018-11-06T07:08:24.968Z,74.79
2018-11-06T07:10:53.652Z,74.13
2018-11-06T07:13:22.353Z,74.92
2018-11-06T07:15:50.972Z,73.94
2018-11-06T07:18:19.626Z,73.55
2018-11-06T07:20:48.277Z,73.75
2018-11-06T07:23:16.955Z,74.02
